createdAt,value
2018-01-23T00:01:03.516Z,6.47
2018-01-23T00:03:31.137Z,6.43
2018-01-23T00:05:58.740Z,5.40
2018-01-23T00:08:26.389Z,5.60
2018-01-23T00:10:54.013Z,7.20
2018-01-23T00:13:21.642Z,8.33
2018-01-23T00:15:49.270Z,6.40
2018-01-23T00:18:16.985Z,5.50
2018-01-23T00:20:44.574Z,6.07
2018-01-23T00:23:12.196Z,6.80
2018-01-23T00:25:39.805Z,5.73
2018-01-23T00:28:07.465Z,6.73
2018-01-23T00:30:35.126Z,6.47
2018-01-23T00:33:02.842Z,7.10
2018-01-23T00:35:30.449Z,6.13
2018-01-23T00:37:58.182Z,6.07
2018-01-23T00:40:25.813Z,5.97
2018-01-23T00:42:53.434Z,6.53
2018-01-23T00:45:21.037Z,9.47
2018-01-23T00:47:48.658Z,6.80
2018-01-23T00:50:16.277Z,7.40
2018-01-23T00:52:43.914Z,8.70
2018-01-23T00:55:11.514Z,8.00
2018-01-23T00:57:39.146Z,7.20
2018-01-23T01:00:06.742Z,7.90
2018-01-23T01:02:34.361Z,7.60
2018-01-23T01:05:01.981Z,7.70
2018-01-23T01:07:29.611Z,8.03
2018-01-23T01:09:57.209Z,7.20
2018-01-23T01:12:24.830Z,6.50
2018-01-23T01:14:52.483Z,6.87
2018-01-23T01:17:20.126Z,7.60
2018-01-23T01:19:47.753Z,7.40
2018-01-23T01:22:15.381Z,7.23
2018-01-23T01:24:43.018Z,9.47
2018-01-23T01:27:10.642Z,7.70
2018-01-23T01:29:38.257Z,7.77
2018-01-23T01:32:05.993Z,9.37
2018-01-23T01:34:33.585Z,7.40
2018-01-23T01:37:01.234Z,8.97
2018-01-23T01:39:28.830Z,7.90
2018-01-23T01:41:56.464Z,8.20
2018-01-23T01:44:24.066Z,7.53
2018-01-23T01:46:51.690Z,7.50
2018-01-23T01:49:19.293Z,7.87
2018-01-23T01:51:46.901Z,7.40
2018-01-23T01:54:14.507Z,9.70
2018-01-23T01:56:42.116Z,8.07
2018-01-23T01:59:09.813Z,8.07
2018-01-23T02:01:37.437Z,8.60
2018-01-23T02:04:05.035Z,8.00
2018-01-23T02:06:32.703Z,8.93
2018-01-23T02:09:00.340Z,7.47
2018-01-23T02:11:27.942Z,8.20
2018-01-23T02:13:55.544Z,8.07
2018-01-23T02:16:23.197Z,9.17
2018-01-23T02:18:50.781Z,8.60
2018-01-23T02:21:18.415Z,8.10
2018-01-23T02:23:46.005Z,8.63
2018-01-23T02:26:13.701Z,8.33
2018-01-23T02:28:41.297Z,8.50
2018-01-23T02:31:08.958Z,8.60
2018-01-23T02:33:36.565Z,9.47
2018-01-23T02:36:04.200Z,8.33
2018-01-23T02:38:31.796Z,9.33
2018-01-23T02:40:59.429Z,8.27
2018-01-23T02:43:27.017Z,8.10
2018-01-23T02:45:54.653Z,7.97
2018-01-23T02:48:22.250Z,10.90
2018-01-23T02:50:49.874Z,7.97
2018-01-23T02:53:17.462Z,7.67
2018-01-23T02:55:45.150Z,7.70
2018-01-23T02:58:12.745Z,9.03
2018-01-23T03:00:40.434Z,9.00
2018-01-23T03:03:08.017Z,8.70
2018-01-23T03:05:35.642Z,8.10
2018-01-23T03:08:03.249Z,7.70
2018-01-23T03:10:30.878Z,6.90
2018-01-23T03:12:58.501Z,8.57
2018-01-23T03:15:26.203Z,7.03
2018-01-23T03:17:53.815Z,8.30
2018-01-23T03:20:21.445Z,8.80
2018-01-23T03:22:49.166Z,7.17
2018-01-23T03:25:16.798Z,7.17
2018-01-23T03:27:44.455Z,7.20
2018-01-23T03:30:12.078Z,8.00
2018-01-23T03:32:39.740Z,6.73
2018-01-23T03:35:07.362Z,7.37
2018-01-23T03:37:34.992Z,6.97
2018-01-23T03:40:02.597Z,9.33
2018-01-23T03:42:30.253Z,7.87
2018-01-23T03:44:57.881Z,7.40
2018-01-23T03:47:25.473Z,6.20
2018-01-23T03:49:53.120Z,7.70
2018-01-23T03:52:20.768Z,5.93
2018-01-23T03:54:48.381Z,6.97
2018-01-23T03:57:15.986Z,6.70
2018-01-23T03:59:43.618Z,6.70
2018-01-23T04:02:11.213Z,7.77
2018-01-23T04:04:38.822Z,6.63
2018-01-23T04:07:06.521Z,6.00
2018-01-23T04:09:34.162Z,5.30
2018-01-23T04:12:01.754Z,6.83
2018-01-23T04:14:29.369Z,6.13
2018-01-23T04:16:56.970Z,6.50
2018-01-23T04:19:24.586Z,5.80
2018-01-23T04:21:52.172Z,7.60
2018-01-23T04:24:19.788Z,5.80
2018-01-23T04:26:47.394Z,6.30
2018-01-23T04:29:15.019Z,6.93
2018-01-23T04:31:42.666Z,6.30
2018-01-23T04:34:10.410Z,6.27
2018-01-23T04:36:38.009Z,6.43
2018-01-23T04:39:05.643Z,6.93
2018-01-23T04:41:33.291Z,6.90
2018-01-23T04:44:00.906Z,6.70
2018-01-23T04:46:28.489Z,6.70
2018-01-23T04:48:56.117Z,6.47
2018-01-23T04:51:23.723Z,6.77
2018-01-23T04:53:51.338Z,5.97
2018-01-23T04:56:18.941Z,5.73
2018-01-23T04:58:46.583Z,6.03
2018-01-23T05:01:14.253Z,6.33
2018-01-23T05:03:41.894Z,6.50
2018-01-23T05:06:09.501Z,6.10
2018-01-23T05:08:37.128Z,6.07
2018-01-23T05:11:04.755Z,5.30
2018-01-23T05:13:32.555Z,6.60
2018-01-23T05:16:00.145Z,7.87
2018-01-23T05:18:27.775Z,5.20
2018-01-23T05:20:55.360Z,6.00
2018-01-23T05:23:22.979Z,5.50
2018-01-23T05:25:50.561Z,4.80
2018-01-23T05:28:18.229Z,4.90
2018-01-23T05:30:45.805Z,5.70
2018-01-23T05:33:13.414Z,5.77
2018-01-23T05:35:41.041Z,5.33
2018-01-23T05:38:08.659Z,5.20
2018-01-23T05:40:36.254Z,5.37
2018-01-23T05:43:03.878Z,6.20
2018-01-23T05:45:31.470Z,4.90
2018-01-23T05:47:59.085Z,5.40
2018-01-23T05:50:26.665Z,4.43
2018-01-23T05:52:54.333Z,6.57
2018-01-23T05:55:21.982Z,6.80
2018-01-23T05:57:49.601Z,5.20
2018-01-23T06:00:17.252Z,5.50
2018-01-23T06:02:44.913Z,4.83
2018-01-23T06:05:12.506Z,4.53
2018-01-23T06:07:40.131Z,3.97
2018-01-23T06:10:07.766Z,4.30
2018-01-23T06:12:35.389Z,5.10
2018-01-23T06:15:02.975Z,6.00
2018-01-23T06:17:30.602Z,4.70
2018-01-23T06:19:58.223Z,5.50
2018-01-23T06:22:25.850Z,6.07
2018-01-23T06:24:53.487Z,6.00
2018-01-23T06:27:21.142Z,7.23
2018-01-23T06:29:48.778Z,6.43
2018-01-23T06:32:16.402Z,6.80
2018-01-23T06:34:44.129Z,5.37
2018-01-23T06:37:11.741Z,6.13
2018-01-23T06:39:39.333Z,6.03
2018-01-23T06:42:06.967Z,6.57
2018-01-23T06:44:34.607Z,6.43
2018-01-23T06:47:02.242Z,5.73
2018-01-23T06:49:29.845Z,6.40
2018-01-23T06:51:57.457Z,5.57
2018-01-23T06:54:25.078Z,7.17
2018-01-23T06:56:52.717Z,6.33
2018-01-23T06:59:20.310Z,7.00
2018-01-23T07:01:47.989Z,6.20
2018-01-23T07:04:15.586Z,5.67
2018-01-23T07:06:43.225Z,6.17
2018-01-23T07:09:10.965Z,6.67
2018-01-23T07:11:38.547Z,7.03
2018-01-23T07:14:06.154Z,7.10
2018-01-23T07:16:33.766Z,5.87
2018-01-23T07:19:01.358Z,7.30
2018-01-23T07:21:28.966Z,6.67
2018-01-23T07:23:56.559Z,7.17
2018-01-23T07:26:24.225Z,6.37
2018-01-23T07:28:51.786Z,6.10
2018-01-23T07:31:19.410Z,8.67
2018-01-23T07:33:47.001Z,7.97
2018-01-23T07:36:14.668Z,8.53
2018-01-23T07:38:42.258Z,7.17
2018-01-23T07:41:09.877Z,7.33
2018-01-23T07:43:37.542Z,7.20
2018-01-23T07:46:05.246Z,8.30
2018-01-23T07:48:32.874Z,7.13
2018-01-23T07:51:00.494Z,6.50
2018-01-23T07:53:28.084Z,7.57
2018-01-23T07:55:55.875Z,7.47
2018-01-23T07:58:23.469Z,7.60
2018-01-23T08:00:51.139Z,7.10
2018-01-23T08:03:18.731Z,7.70
2018-01-23T08:05:46.356Z,6.80
2018-01-23T08:08:14.065Z,7.13
2018-01-23T08:10:41.669Z,7.07
2018-01-23T08:13:09.290Z,7.13
2018-01-23T08:15:36.906Z,7.37
2018-01-23T08:18:04.531Z,7.30
2018-01-23T08:20:32.124Z,7.40
2018-01-23T08:22:59.761Z,7.60
2018-01-23T08:25:27.342Z,6.90
2018-01-23T08:27:54.965Z,6.93
2018-01-23T08:30:22.549Z,7.67
2018-01-23T08:32:50.186Z,6.20
2018-01-23T08:35:17.792Z,7.20
2018-01-23T08:37:45.393Z,7.10
2018-01-23T08:40:12.979Z,6.83
2018-01-23T08:42:40.638Z,6.10
2018-01-23T08:45:08.287Z,7.00
2018-01-23T08:47:35.873Z,6.60
2018-01-23T08:50:03.464Z,6.80
2018-01-23T08:52:31.122Z,6.00
2018-01-23T08:54:58.714Z,6.53
2018-01-23T08:57:26.337Z,6.47
2018-01-23T08:59:53.939Z,6.83
2018-01-23T09:02:21.610Z,6.40
2018-01-23T09:04:49.239Z,5.37
2018-01-23T09:07:16.871Z,5.63
2018-01-23T09:09:44.480Z,5.77
2018-01-23T09:12:12.095Z,4.73
2018-01-23T09:14:39.684Z,4.80
2018-01-23T09:17:07.328Z,5.67
2018-01-23T09:19:34.934Z,5.00
2018-01-23T09:22:02.571Z,6.07
2018-01-23T09:24:30.243Z,5.50
2018-01-23T09:26:57.849Z,6.53
2018-01-23T09:29:25.433Z,5.53
2018-01-23T09:31:53.058Z,5.40
2018-01-23T09:34:20.698Z,3.90
2018-01-23T09:36:48.308Z,4.80
2018-01-23T09:39:15.893Z,5.27
2018-01-23T09:41:43.542Z,4.43
2018-01-23T09:44:11.180Z,4.20
2018-01-23T09:46:39.476Z,4.73
2018-01-23T09:49:07.049Z,4.03
2018-01-23T09:51:34.734Z,5.10
2018-01-23T09:54:02.377Z,5.20
2018-01-23T09:56:29.990Z,4.60
2018-01-23T09:58:57.581Z,4.90
2018-01-23T10:01:25.225Z,5.10
2018-01-23T10:03:52.814Z,4.60
2018-01-23T10:06:20.440Z,4.47
2018-01-23T10:08:48.057Z,4.30
2018-01-23T10:11:15.670Z,4.10
2018-01-23T10:13:43.314Z,4.33
2018-01-23T10:16:10.939Z,5.63
2018-01-23T10:18:38.553Z,4.70
2018-01-23T10:21:06.225Z,4.93
2018-01-23T10:23:33.817Z,4.00
2018-01-23T10:28:39.856Z,4.10
2018-01-23T10:31:07.450Z,3.70
2018-01-23T10:33:35.034Z,3.63
2018-01-23T10:36:02.661Z,4.83
2018-01-23T10:38:30.246Z,4.23
2018-01-23T10:40:57.862Z,4.00
2018-01-23T10:43:25.459Z,4.60
2018-01-23T10:45:53.097Z,4.00
2018-01-23T10:48:20.689Z,3.50
2018-01-23T10:50:48.317Z,3.40
2018-01-23T10:53:15.905Z,2.80
2018-01-23T10:55:43.510Z,3.80
2018-01-23T10:58:11.095Z,3.67
2018-01-23T11:00:44.273Z,3.80
2018-01-23T11:03:11.922Z,3.97
2018-01-23T11:05:39.530Z,2.87
2018-01-23T11:08:07.166Z,3.80
2018-01-23T11:10:34.785Z,3.30
2018-01-23T11:13:02.379Z,3.33
2018-01-23T11:15:29.992Z,3.20
2018-01-23T11:17:57.581Z,3.40
2018-01-23T11:20:25.211Z,3.70
2018-01-23T11:22:52.798Z,3.37
2018-01-23T11:25:20.426Z,4.37
2018-01-23T11:27:48.079Z,3.43
2018-01-23T11:30:15.697Z,3.17
2018-01-23T11:32:43.286Z,6.10
2018-01-23T11:35:10.911Z,5.10
2018-01-23T11:37:38.579Z,3.60
2018-01-23T11:40:06.285Z,10.33
2018-01-23T11:42:33.873Z,5.80
2018-01-23T11:45:01.506Z,5.63
2018-01-23T11:47:29.120Z,4.00
2018-01-23T11:49:56.741Z,2.50
2018-01-23T11:52:24.330Z,2.73
2018-01-23T11:54:51.950Z,3.20
2018-01-23T11:57:19.548Z,3.27
2018-01-23T11:59:47.158Z,2.47
2018-01-23T12:02:14.766Z,2.50
2018-01-23T12:04:42.381Z,3.07
2018-01-23T12:07:10.118Z,2.73
2018-01-23T12:09:37.749Z,2.70
2018-01-23T12:12:05.350Z,4.67
2018-01-23T12:14:32.981Z,2.60
2018-01-23T12:17:00.565Z,3.27
2018-01-23T12:19:28.188Z,2.80
2018-01-23T12:21:55.793Z,2.57
2018-01-23T12:24:23.401Z,3.40
2018-01-23T12:26:51.030Z,4.57
2018-01-23T12:29:18.617Z,3.30
2018-01-23T12:31:46.246Z,3.97
2018-01-23T12:34:13.929Z,3.53
2018-01-23T12:36:41.559Z,3.40
2018-01-23T12:39:09.215Z,2.97
2018-01-23T12:41:36.894Z,3.20
2018-01-23T12:44:04.489Z,34.00
2018-01-23T12:46:32.123Z,8.20
2018-01-23T12:48:59.719Z,2.93
2018-01-23T12:51:27.377Z,2.90
2018-01-23T12:53:54.964Z,3.63
2018-01-23T12:56:22.573Z,3.20
2018-01-23T12:58:50.185Z,3.37
2018-01-23T13:01:17.810Z,3.00
2018-01-23T13:03:45.416Z,3.37
2018-01-23T13:06:13.083Z,3.23
2018-01-23T13:08:40.691Z,4.43
2018-01-23T13:11:08.304Z,14.03
2018-01-23T13:13:35.906Z,4.07
2018-01-23T13:16:03.527Z,4.13
2018-01-23T13:18:31.132Z,4.90
2018-01-23T13:20:58.757Z,3.43
2018-01-23T13:23:26.367Z,4.40
2018-01-23T13:25:53.990Z,3.63
2018-01-23T13:28:21.582Z,4.40
2018-01-23T13:30:49.231Z,4.20
2018-01-23T13:33:16.823Z,3.73
2018-01-23T13:35:44.624Z,3.87
2018-01-23T13:38:12.234Z,3.33
2018-01-23T13:40:40.020Z,3.50
2018-01-23T13:43:07.615Z,3.50
2018-01-23T13:45:35.252Z,3.67
2018-01-23T13:48:02.864Z,3.10
2018-01-23T13:50:30.497Z,3.13
2018-01-23T13:52:58.089Z,3.83
2018-01-23T13:55:25.721Z,3.20
2018-01-23T13:57:53.321Z,3.70
2018-01-23T14:00:20.987Z,3.10
2018-01-23T14:02:48.571Z,5.67
2018-01-23T14:05:16.212Z,2.57
2018-01-23T14:07:43.918Z,2.83
2018-01-23T14:10:11.556Z,3.10
2018-01-23T14:12:39.167Z,3.53
2018-01-23T14:15:06.868Z,3.20
2018-01-23T14:17:34.467Z,3.13
2018-01-23T14:20:02.273Z,2.73
2018-01-23T14:22:29.911Z,2.33
2018-01-23T14:24:57.597Z,3.70
2018-01-23T14:27:25.214Z,2.80
2018-01-23T14:29:52.851Z,2.53
2018-01-23T14:32:20.543Z,3.17
2018-01-23T14:34:48.166Z,2.53
2018-01-23T14:37:15.778Z,3.13
2018-01-23T14:39:43.397Z,2.93
2018-01-23T14:42:10.991Z,2.30
2018-01-23T14:44:38.592Z,2.83
2018-01-23T14:47:06.211Z,3.40
2018-01-23T14:49:33.862Z,2.30
2018-01-23T14:52:01.469Z,2.80
2018-01-23T14:54:29.058Z,2.00
2018-01-23T14:56:56.701Z,10.83
2018-01-23T14:59:24.475Z,3.10
2018-01-23T15:01:52.074Z,2.87
2018-01-23T15:04:19.694Z,2.80
2018-01-23T15:06:47.329Z,3.10
2018-01-23T15:09:14.923Z,2.60
2018-01-23T15:11:42.529Z,2.00
2018-01-23T15:14:10.210Z,2.80
2018-01-23T15:16:37.878Z,3.03
2018-01-23T15:19:05.530Z,2.00
2018-01-23T15:21:33.171Z,2.27
2018-01-23T15:24:00.787Z,2.80
2018-01-23T15:26:28.417Z,3.50
2018-01-23T15:28:56.070Z,3.03
2018-01-23T15:31:23.662Z,3.07
2018-01-23T15:33:51.330Z,3.60
2018-01-23T15:36:18.938Z,3.50
2018-01-23T15:38:46.646Z,2.57
2018-01-23T15:41:14.228Z,3.07
2018-01-23T15:43:41.886Z,2.43
2018-01-23T15:46:09.533Z,2.00
2018-01-23T15:48:37.171Z,2.23
2018-01-23T15:51:04.779Z,2.43
2018-01-23T15:53:32.410Z,1.50
2018-01-23T15:56:00.017Z,2.10
2018-01-23T15:58:27.668Z,1.70
2018-01-23T16:00:55.258Z,2.30
2018-01-23T16:03:22.886Z,1.70
2018-01-23T16:05:50.513Z,2.00
2018-01-23T16:08:18.148Z,3.60
2018-01-23T16:10:45.743Z,4.13
2018-01-23T16:13:13.364Z,2.37
2018-01-23T16:15:40.948Z,1.80
2018-01-23T16:18:08.577Z,1.90
2018-01-23T16:20:36.195Z,1.43
2018-01-23T16:23:03.814Z,2.30
2018-01-23T16:25:31.468Z,1.77
2018-01-23T16:27:59.133Z,1.57
2018-01-23T16:30:26.774Z,2.27
2018-01-23T16:32:54.390Z,1.67
2018-01-23T16:35:22.108Z,2.90
2018-01-23T16:37:49.698Z,1.73
2018-01-23T16:40:17.374Z,1.60
2018-01-23T16:42:44.978Z,1.93
2018-01-23T16:45:12.753Z,1.63
2018-01-23T16:47:40.349Z,2.03
2018-01-23T16:50:07.987Z,2.00
2018-01-23T16:52:35.577Z,2.50
2018-01-23T16:55:03.253Z,1.67
2018-01-23T16:57:30.844Z,2.60
2018-01-23T16:59:58.498Z,2.20
2018-01-23T17:02:26.085Z,1.80
2018-01-23T17:04:53.722Z,2.50
2018-01-23T17:07:21.442Z,6.57
2018-01-23T17:09:49.073Z,2.77
2018-01-23T17:12:16.690Z,1.70
2018-01-23T17:14:44.315Z,1.73
2018-01-23T17:17:11.906Z,2.03
2018-01-23T17:19:39.572Z,1.83
2018-01-23T17:22:07.139Z,1.83
2018-01-23T17:24:34.752Z,2.80
2018-01-23T17:27:02.379Z,1.80
2018-01-23T17:29:30.000Z,1.50
2018-01-23T17:31:57.657Z,1.90
2018-01-23T17:34:25.283Z,2.40
2018-01-23T17:36:52.907Z,1.70
2018-01-23T17:39:20.563Z,2.20
2018-01-23T17:41:48.190Z,3.37
2018-01-23T17:44:15.809Z,2.80
2018-01-23T17:46:43.434Z,3.17
2018-01-23T17:49:11.090Z,2.40
2018-01-23T17:51:38.806Z,2.50
2018-01-23T17:54:06.398Z,3.50
2018-01-23T17:56:34.033Z,2.57
2018-01-23T17:59:01.677Z,2.60
2018-01-23T18:01:29.318Z,2.00
2018-01-23T18:03:56.915Z,2.33
2018-01-23T18:06:24.542Z,3.33
2018-01-23T18:08:52.149Z,3.47
2018-01-23T18:11:19.819Z,1.80
2018-01-23T18:13:47.518Z,2.33
2018-01-23T18:16:15.175Z,2.37
2018-01-23T18:18:42.774Z,1.70
2018-01-23T18:21:10.428Z,1.47
2018-01-23T18:23:38.160Z,2.00
2018-01-23T18:26:05.764Z,1.87
2018-01-23T18:28:33.454Z,2.87
2018-01-23T18:31:01.048Z,3.03
2018-01-23T18:33:28.693Z,2.13
2018-01-23T18:35:56.301Z,2.90
2018-01-23T18:38:23.990Z,1.70
2018-01-23T18:40:51.598Z,6.33
2018-01-23T18:43:19.225Z,3.10
2018-01-23T18:45:46.868Z,2.47
2018-01-23T18:48:14.542Z,1.97
2018-01-23T18:50:42.120Z,1.60
2018-01-23T18:53:09.766Z,1.50
2018-01-23T18:55:37.390Z,2.13
2018-01-23T18:58:05.018Z,2.20
2018-01-23T19:00:32.603Z,2.50
2018-01-23T19:03:00.333Z,1.97
2018-01-23T19:05:27.932Z,2.70
2018-01-23T19:07:55.555Z,3.40
2018-01-23T19:10:23.174Z,2.40
2018-01-23T19:12:50.799Z,1.63
2018-01-23T19:15:18.385Z,1.70
2018-01-23T19:17:46.030Z,3.50
2018-01-23T19:20:13.634Z,2.80
2018-01-23T19:22:41.291Z,3.10
2018-01-23T19:25:08.877Z,4.00
2018-01-23T19:27:36.550Z,2.53
2018-01-23T19:30:04.176Z,2.50
2018-01-23T19:32:31.769Z,1.90
2018-01-23T19:34:59.568Z,2.10
2018-01-23T19:37:27.393Z,1.73
2018-01-23T19:39:55.097Z,2.30
2018-01-23T19:42:22.684Z,1.80
2018-01-23T19:44:52.151Z,2.33
2018-01-23T19:47:19.780Z,2.13
2018-01-23T19:49:47.675Z,1.77
2018-01-23T19:52:15.575Z,2.33
2018-01-23T19:54:43.489Z,2.13
2018-01-23T19:57:11.115Z,3.50
2018-01-23T19:59:39.022Z,3.10
2018-01-23T20:02:06.863Z,2.60
2018-01-23T20:04:34.571Z,1.87
2018-01-23T20:07:02.237Z,1.40
2018-01-23T20:09:30.071Z,2.07
2018-01-23T20:11:57.818Z,1.70
2018-01-23T20:14:25.645Z,1.87
2018-01-23T20:16:53.315Z,1.97
2018-01-23T20:19:21.154Z,1.80
2018-01-23T20:21:49.027Z,1.87
2018-01-23T20:24:16.981Z,1.70
2018-01-23T20:26:44.919Z,1.87
2018-01-23T20:29:12.570Z,1.93
2018-01-23T20:31:40.290Z,2.00
2018-01-23T20:34:07.888Z,1.57
2018-01-23T20:36:35.491Z,4.10
2018-01-23T20:39:03.113Z,2.43
2018-01-23T20:41:30.745Z,2.37
2018-01-23T20:43:58.384Z,1.77
2018-01-23T20:46:26.000Z,1.60
2018-01-23T20:48:53.733Z,1.87
2018-01-23T20:51:21.334Z,1.97
2018-01-23T20:53:48.998Z,2.20
2018-01-23T20:56:16.601Z,2.27
2018-01-23T20:58:44.207Z,2.20
2018-01-23T21:01:11.791Z,2.17
2018-01-23T21:03:39.411Z,2.10
2018-01-23T21:06:07.106Z,1.73
2018-01-23T21:08:34.762Z,1.90
2018-01-23T21:11:02.433Z,2.73
2018-01-23T21:13:30.082Z,2.20
2018-01-23T21:15:57.760Z,2.50
2018-01-23T21:18:25.476Z,1.83
2018-01-23T21:20:53.063Z,2.10
2018-01-23T21:23:20.701Z,2.03
2018-01-23T21:25:48.347Z,2.27
2018-01-23T21:28:15.967Z,1.90
2018-01-23T21:30:43.591Z,1.70
2018-01-23T21:33:11.230Z,1.90
2018-01-23T21:35:38.835Z,2.00
2018-01-23T21:38:06.485Z,2.03
2018-01-23T21:40:34.106Z,2.20
2018-01-23T21:43:01.751Z,2.20
2018-01-23T21:45:29.387Z,2.10
2018-01-23T21:47:57.042Z,1.50
2018-01-23T21:50:24.626Z,1.50
2018-01-23T21:52:52.292Z,1.60
2018-01-23T21:55:19.882Z,1.80
2018-01-23T21:57:47.543Z,1.10
2018-01-23T22:00:15.178Z,1.20
2018-01-23T22:02:42.794Z,1.50
2018-01-23T22:05:10.593Z,1.47
2018-01-23T22:07:38.185Z,1.30
2018-01-23T22:10:05.822Z,1.30
2018-01-23T22:12:33.489Z,1.60
2018-01-23T22:15:01.106Z,1.20
2018-01-23T22:17:28.734Z,1.33
2018-01-23T22:19:56.375Z,1.30
2018-01-23T22:22:24.030Z,1.30
2018-01-23T22:24:51.735Z,1.40
2018-01-23T22:27:19.346Z,1.17
2018-01-23T22:29:46.967Z,1.20
2018-01-23T22:32:14.593Z,1.40
2018-01-23T22:34:42.228Z,1.40
2018-01-23T22:37:09.830Z,1.10
2018-01-23T22:39:37.501Z,1.37
2018-01-23T22:42:05.129Z,0.90
2018-01-23T22:44:32.795Z,0.90
2018-01-23T22:47:00.431Z,1.20
2018-01-23T22:49:27.992Z,1.13
2018-01-23T22:51:55.596Z,0.90
2018-01-23T22:54:23.214Z,1.10
2018-01-23T22:56:50.820Z,1.83
2018-01-23T22:59:18.454Z,0.80
2018-01-23T23:01:46.041Z,0.77
2018-01-23T23:04:13.674Z,0.63
2018-01-23T23:06:41.269Z,0.80
2018-01-23T23:09:08.922Z,0.80
2018-01-23T23:11:36.584Z,1.00
2018-01-23T23:14:04.202Z,0.83
2018-01-23T23:16:31.805Z,0.73
2018-01-23T23:18:59.434Z,1.20
2018-01-23T23:21:27.086Z,1.10
2018-01-23T23:23:54.714Z,0.80
2018-01-23T23:26:22.347Z,1.00
2018-01-23T23:28:49.957Z,0.90
2018-01-23T23:31:17.558Z,1.03
2018-01-23T23:33:45.182Z,1.13
2018-01-23T23:36:12.851Z,1.00
2018-01-23T23:38:40.513Z,0.73
2018-01-23T23:41:08.125Z,0.80
2018-01-23T23:43:35.768Z,0.90
2018-01-23T23:46:03.381Z,0.83
2018-01-23T23:48:31.006Z,1.00
2018-01-23T23:50:58.602Z,0.70
2018-01-23T23:53:26.250Z,0.70
2018-01-23T23:55:53.841Z,0.80
2018-01-23T23:58:21.450Z,0.80
